34CL weather

Burney Service Center Heliport
Burney, California, United States

Public forecast

Using degrees Fahrenheit for public forecast. Weather courtesy of forecast.io.

Closest aviation weather report (METAR) to Burney Service Center Heliport

Closest report is Redding Municipal Airport, 37.3 nm (69.1 km) SW. Retrieved 2019/10/19 18:53 UTC (16 minutes ago):

KRDD 191853Z 06003KT 10SM CLR 14/09 A3006 RMK AO2 SLP177 T01440094

Closest aviation forecast (TAF) to Burney Service Center Heliport

Closest forecast is Redding Municipal Airport, 37.3 nm (69.1 km) SW. Retrieved 2019/10/19 18:22 UTC (47 minutes ago):

TAF KRDD 191720Z 1918/2018 19005KT P6SM VCSH BKN050 OVC250 FM192000 18004KT P6SM SCT050 OVC250 FM200000 VRB04KT P6SM BKN250